Skip to Main Content
SEARCH:
Location Air RH Dwp Precip Type Wind Speed Wind Gust Direction Pavement Temperature Date/Time
Hatem Bridge US 40 E/B 64 82 58 None Calm Calm SE 71 - 71 5/23/2017 4:37:00 PM
I-270 at I-370 64 80 58 None Calm Calm N 72 - 74 5/23/2017 4:35:00 PM
I-270 at MD-109 61 92 58 Rain Calm Calm N 64 - 64 5/23/2017 4:35:00 PM
I-495 at American Legion Bridge 66 81 61 None 4 mph 9 mph E 77 - 78 5/23/2017 4:35:00 PM
I-68 at MD-219 55 80 50 None 8 mph 18 mph SE 69 - 73 5/23/2017 4:35:00 PM
I-68 at Savage Mt 56 78 49 None 8 mph 12 mph SE 74 - 75 5/23/2017 4:35:00 PM
I-68 at Sideling Hill 62 72 53 None 4 mph 8 mph S 80 - 80 5/23/2017 4:35:00 PM
I-68 at WV Line 59 67 48 None 7 mph 13 mph E 71 - 74 5/23/2017 4:35:00 PM
I-695 at I-83 63 81 57 None Calm 8 mph NE 65 - 67 5/23/2017 4:35:00 PM
I-70 at Fred-Wash Co. - - - No Data Available - - No Data Available -
I-70 at I-695 63 82 58 None 4 mph 7 mph SE 68 - 75 5/23/2017 4:35:00 PM
I-70 at I-81 65 62 51 None 5 mph 7 mph SE 80 - 80 5/23/2017 4:35:00 PM
I-70 at MD-27 58 98 58 None Calm 4 mph E 62 - 62 5/23/2017 4:35:00 PM
I-70 at MD-32 60 89 57 Rain Calm 4 mph E 64 - 66 5/23/2017 4:35:00 PM
I-83 at MD-137 62 83 57 None Calm 4 mph E 71 - 71 5/23/2017 4:35:00 PM
I-95 at I-695 NE 64 79 57 None Calm Calm E 69 - 73 5/23/2017 4:37:00 PM
I-95 at Patuxent River 65 82 59 None Calm 8 mph SE 73 - 75 5/23/2017 4:35:00 PM
I-95 at Tydings Bridge 65 78 58 None 4 mph 8 mph E 71 - 72 5/23/2017 4:35:00 PM
I-95/495 at I-295 69 73 60 None 4 mph 8 mph E 71 - 74 5/23/2017 4:35:00 PM
I-97 at MD-100 66 78 59 None 5 mph 9 mph SE 74 - 76 5/23/2017 4:35:00 PM
I-97 at MD-32 65 80 59 None 11 mph 14 mph N 72 - 74 5/23/2017 4:35:00 PM
MD 20 at MD 21 66 79 59 None Calm Calm N 78 - 78 5/23/2017 4:35:00 PM
MD 231 at Patuxent River 63 86 59 None 6 mph 11 mph E 71 - 74 5/23/2017 4:35:00 PM
MD 260 at Cox Rd 64 76 57 None Calm 6 mph E 76 - 76 5/23/2017 4:35:00 PM
MD-135 at Salt Dome 54 89 51 None 7 mph 12 mph E 73 - 73 5/23/2017 4:35:00 PM
MD-140 at MD-97 59 86 55 Rain Calm 5 mph E 66 - 66 5/23/2017 4:35:00 PM
MD-200 EB at Bonifant Rd 63 81 58 None Calm 8 mph E 73 - 74 5/23/2017 4:37:00 PM
MD-200 WB at Muncaster Mill Rd 63 79 57 None 4 mph 9 mph E 72 - 74 5/23/2017 4:37:00 PM
MD-213 at Sassafras River 68 82 62 None Calm Calm E 77 - 77 5/23/2017 4:35:00 PM
MD-24 at Rock St Park 63 90 60 None Calm Calm N 69 - 69 5/23/2017 4:35:00 PM
MD-30 at PA Line 61 81 55 None Calm Calm NE 70 - 70 5/23/2017 4:35:00 PM
MD-301 at MD-305 66 67 55 None 7 mph 11 mph E 84 - 87 5/23/2017 4:35:00 PM
MD-33 at Knapps Narrows Drawbridge 64 73 55 None 7 mph 13 mph SE 79 - 79 5/23/2017 4:35:00 PM
MD-344 at MD-224 65 86 61 None Calm Calm N 76 - 76 5/23/2017 4:35:00 PM
MD-4 at Patuxent River 63 91 60 None - - No Data Available 67 - 69 5/23/2017 4:35:00 PM
MD-404 at Choptank River 63 66 52 None Calm 8 mph SE 75 - 79 5/23/2017 4:35:00 PM
MD-43 at MD-150 65 82 60 None 4 mph 6 mph E 73 - 75 5/23/2017 4:35:00 PM
MD-51 at Oldtown Salt Dome 64 62 51 None 4 mph 10 mph SE 79 - 79 5/23/2017 4:35:00 PM
MD-64 at MD-418 - - - No Data Available - - No Data Available -
US-1 at Baltimore / Harford Co. Line 63 89 60 None Calm 4 mph S 68 - 69 5/23/2017 4:35:00 PM
US-1 at Conowingo Dam 66 84 61 None Calm Calm S 73 - 73 5/23/2017 4:35:00 PM
US-13 at US-113 59 89 56 None 5 mph 11 mph NE 76 - 76 5/23/2017 4:35:00 PM
US-13 at US-50 - - - No Data Available - - No Data Available -
US-15 at MD-140 - - - No Data Available - - No Data Available -
US-301 at MD-5 64 86 60 None 5 mph 10 mph E 76 - 78 5/23/2017 4:35:00 PM
US-301 at Potomac 66 84 61 None 4 mph 11 mph NE 71 - 73 5/23/2017 4:35:00 PM
US-301 on HWN Bridge 64 85 59 None 9 mph 12 mph E 71 - 71 5/23/2017 4:37:00 PM
US-340 at MD-180 61 71 52 None 5 mph 9 mph SE 73 - 74 5/23/2017 4:35:00 PM
US-50 at Choptank 63 80 57 None 4 mph 8 mph NE 71 - 73 5/23/2017 4:35:00 PM
US-50 at I-95 66 83 60 None Calm 6 mph E 71 - 75 5/23/2017 4:35:00 PM
US-50 at MD-2 64 88 61 None Calm 4 mph S 72 - 72 5/23/2017 4:35:00 PM
US-50 at MD-331 64 70 55 None 7 mph 12 mph E 71 - 73 5/23/2017 4:35:00 PM
US-50 at OC Drawbridge 58 93 56 None 10 mph 14 mph NE 73 - 73 5/23/2017 4:35:00 PM
US-50 at Table Rock Rd 55 84 51 None 8 mph 14 mph E 74 - 74 5/23/2017 4:35:00 PM
US-50 Kent Narrow Bridge 66 78 59 None 5 mph 9 mph SE 77 - 79 5/23/2017 4:35:00 PM
WPL Pier 31 64 81 58 None Calm Calm N 72 - 72 5/23/2017 4:36:00 PM
Location Air RH Dwp Precip Type Wind Speed Wind Gust Direction Pavement Temperature Date/Time